Time;durP1;ratioP1;P1;durP2;ratioP2;P2;SDS_P1;SDS_P2;PMS_P1;PMS_P2;Temp;Humidity;BMP_temperature;BMP_pressure;BME280_temperature;BME280_humidity;BME280_pressure;Samples;Min_cycle;Max_cycle;Signal;HPM_P1;HPM_P2
2023/01/18 00:01:58;;;;;;;5.67;3.87;;;3.40;99.90;;;;;;5052634;29;20056;-66
2023/01/18 00:04:32;;;;;;;5.97;4.13;;;3.40;99.90;;;;;;5074919;29;20069;-66
2023/01/18 00:07:12;;;;;;;6.30;3.90;;;3.40;99.90;;;;;;5053170;29;20042;-66
2023/01/18 00:09:43;;;;;;;4.63;3.08;;;3.40;99.90;;;;;;5069267;29;20028;-66
2023/01/18 00:12:19;;;;;;;5.53;4.03;;;3.40;99.90;;;;;;5051672;29;20038;-66
2023/01/18 00:14:55;;;;;;;6.60;3.05;;;3.40;99.90;;;;;;5052527;29;20048;-66
2023/01/18 00:17:29;;;;;;;4.15;3.45;;;3.40;99.90;;;;;;5070084;29;20032;-70
2023/01/18 00:20:03;;;;;;;4.45;3.47;;;3.40;99.90;;;;;;5065882;29;20052;-65
2023/01/18 00:22:36;;;;;;;5.00;3.60;;;3.40;99.90;;;;;;5051885;29;20051;-65
2023/01/18 00:25:09;;;;;;;5.05;3.28;;;3.50;99.90;;;;;;5070338;29;20409;-67
2023/01/18 00:27:51;;;;;;;4.35;2.88;;;3.50;99.90;;;;;;5069795;29;20620;-67
2023/01/18 00:30:25;;;;;;;4.55;2.88;;;3.50;99.90;;;;;;5068604;29;20039;-66
2023/01/18 00:33:00;;;;;;;3.45;2.60;;;3.50;99.90;;;;;;5061204;29;20588;-67
2023/01/18 00:35:34;;;;;;;5.93;2.97;;;3.50;99.90;;;;;;5078927;29;20535;-66
2023/01/18 00:38:05;;;;;;;4.28;3.30;;;3.60;99.90;;;;;;5065644;29;20040;-65
2023/01/18 00:40:37;;;;;;;4.15;3.15;;;3.70;99.90;;;;;;5069959;29;20380;-63
2023/01/18 00:46:03;;;;;;;3.75;2.90;;;3.70;99.90;;;;;;5069918;29;20020;-68
2023/01/18 00:48:34;;;;;;;3.97;2.95;;;3.60;99.90;;;;;;5069631;29;20038;-67
2023/01/18 00:51:08;;;;;;;3.40;2.70;;;3.60;99.90;;;;;;5069198;29;20035;-67
2023/01/18 00:53:42;;;;;;;2.88;2.50;;;3.60;99.90;;;;;;5069273;29;20036;-65
2023/01/18 00:56:20;;;;;;;4.40;2.85;;;3.70;99.90;;;;;;5069204;29;20310;-65
2023/01/18 00:58:51;;;;;;;4.75;3.22;;;3.70;99.90;;;;;;5051665;29;20039;-66
2023/01/18 01:01:22;;;;;;;5.07;3.60;;;3.80;99.90;;;;;;5119513;23;20070;-63
2023/01/18 01:06:45;;;;;;;8.10;4.88;;;3.70;99.90;;;;;;5093214;29;20402;-65
2023/01/18 01:09:24;;;;;;;5.85;3.83;;;3.50;99.90;;;;;;5120597;28;20035;-66
2023/01/18 01:26:15;;;;;;;11.85;5.72;;;3.10;99.90;;;;;;5108814;29;20015;-65
2023/01/18 01:28:53;;;;;;;9.23;5.70;;;3.00;99.90;;;;;;5095864;29;20513;-66
2023/01/18 01:31:24;;;;;;;10.80;5.45;;;2.90;99.90;;;;;;5105662;29;20043;-65
2023/01/18 01:33:55;;;;;;;9.80;6.40;;;2.90;99.90;;;;;;5089383;29;20061;-66
2023/01/18 01:36:27;;;;;;;9.55;5.88;;;2.80;99.90;;;;;;5100942;29;20041;-65
2023/01/18 01:38:58;;;;;;;9.48;6.63;;;2.80;99.90;;;;;;5089747;29;20038;-65
2023/01/18 01:41:32;;;;;;;10.48;6.40;;;2.90;99.90;;;;;;5107196;28;20052;-66
2023/01/18 01:44:23;;;;;;;10.35;6.05;;;2.90;99.90;;;;;;5061899;29;20035;-66
2023/01/18 01:47:02;;;;;;;9.82;6.30;;;3.00;99.90;;;;;;5117544;28;20041;-64
2023/01/18 01:49:35;;;;;;;8.98;5.25;;;3.00;99.90;;;;;;5110864;29;20031;-66
2023/01/18 01:52:10;;;;;;;14.80;5.85;;;3.00;99.90;;;;;;5109587;28;20027;-65
2023/01/18 01:54:49;;;;;;;8.82;5.15;;;3.10;99.90;;;;;;5106624;28;20034;-65
2023/01/18 01:57:38;;;;;;;9.60;5.70;;;2.90;99.90;;;;;;5107643;29;20045;-66
2023/01/18 02:00:25;;;;;;;7.75;4.80;;;3.10;99.90;;;;;;5096639;29;20047;-64
2023/01/18 02:03:00;;;;;;;7.80;5.50;;;3.20;99.90;;;;;;5117719;28;20044;-64
2023/01/18 02:05:38;;;;;;;9.60;6.97;;;3.20;99.90;;;;;;5095838;28;20053;-68
2023/01/18 02:08:21;;;;;;;10.18;6.63;;;3.20;99.90;;;;;;5105315;28;20046;-64
2023/01/18 02:10:54;;;;;;;12.15;6.55;;;3.10;99.90;;;;;;5111682;28;20051;-64
2023/01/18 02:13:29;;;;;;;12.65;6.85;;;3.00;99.90;;;;;;5107842;29;20515;-65
2023/01/18 02:16:00;;;;;;;;;;;3.10;99.90;;;;;;5126147;28;20035;-65
2023/01/18 02:18:43;;;;;;;10.45;6.40;;;3.10;99.90;;;;;;5111580;28;20294;-68
2023/01/18 02:21:16;;;;;;;9.83;5.47;;;3.20;99.90;;;;;;5089588;29;20054;-64
2023/01/18 02:23:51;;;;;;;14.93;7.43;;;3.10;99.90;;;;;;5089486;29;20304;-64
2023/01/18 02:26:48;;;;;;;13.35;7.43;;;3.10;99.90;;;;;;5092611;29;20281;-66
2023/01/18 02:29:47;;;;;;;14.18;7.05;;;3.20;99.90;;;;;;5091130;29;20039;-65
2023/01/18 02:32:48;;;;;;;11.00;6.00;;;3.20;99.90;;;;;;5088201;29;20057;-64
2023/01/18 02:35:22;;;;;;;13.32;7.50;;;3.30;99.90;;;;;;5111992;29;20042;-64
2023/01/18 02:38:19;;;;;;;12.48;6.20;;;3.30;99.90;;;;;;5111641;28;20031;-64
2023/01/18 02:41:00;;;;;;;10.02;5.72;;;3.20;99.90;;;;;;5120850;28;20073;-64
2023/01/18 02:46:34;;;;;;;11.32;5.65;;;3.30;99.90;;;;;;5086907;29;20040;-64
2023/01/18 02:49:11;;;;;;;10.07;6.03;;;3.40;99.90;;;;;;5089415;29;20100;-64
2023/01/18 02:51:43;;;;;;;7.00;4.57;;;3.40;99.90;;;;;;5121563;28;20038;-64
2023/01/18 02:54:23;;;;;;;10.35;5.30;;;3.50;99.90;;;;;;5097683;29;20211;-64
2023/01/18 02:56:55;;;;;;;7.35;5.10;;;3.40;99.90;;;;;;5090635;29;20503;-67
2023/01/18 02:59:40;;;;;;;6.80;4.63;;;3.40;99.90;;;;;;5122716;28;20061;-63
2023/01/18 03:02:16;;;;;;;8.00;5.22;;;3.20;99.90;;;;;;5086386;28;20039;-64
2023/01/18 03:04:55;;;;;;;7.15;4.75;;;3.20;99.90;;;;;;5089015;28;20678;-65
2023/01/18 03:07:31;;;;;;;7.03;4.07;;;3.10;99.90;;;;;;5128018;28;20031;-64
2023/01/18 03:10:06;;;;;;;8.55;5.13;;;3.00;99.90;;;;;;5089682;29;20247;-64
2023/01/18 03:12:59;;;;;;;6.72;4.82;;;3.00;99.90;;;;;;5083952;29;20049;-64
2023/01/18 03:15:42;;;;;;;7.22;4.78;;;3.00;99.90;;;;;;5090457;29;20040;-64
2023/01/18 03:18:25;;;;;;;7.32;4.63;;;3.10;99.90;;;;;;5091370;29;20046;-65
2023/01/18 03:20:59;;;;;;;9.00;5.57;;;3.10;99.90;;;;;;5090825;29;20053;-67
2023/01/18 03:23:37;;;;;;;9.50;4.57;;;3.10;99.90;;;;;;5098551;29;20044;-64
2023/01/18 03:26:19;;;;;;;8.07;5.05;;;3.00;99.90;;;;;;5093287;29;20034;-64
2023/01/18 03:35:02;;;;;;;10.70;5.07;;;2.70;99.90;;;;;;5087671;29;20032;-63
2023/01/18 03:37:38;;;;;;;10.77;5.20;;;2.60;99.90;;;;;;5104004;29;20031;-65
2023/01/18 03:40:20;;;;;;;8.27;4.47;;;2.50;99.90;;;;;;5072457;29;20313;-64
2023/01/18 03:42:59;;;;;;;5.75;3.65;;;2.40;99.90;;;;;;5079868;29;20043;-62
2023/01/18 03:45:38;;;;;;;6.15;3.70;;;2.40;99.90;;;;;;5089852;29;20040;-64
2023/01/18 03:48:16;;;;;;;5.80;3.25;;;2.30;99.90;;;;;;5101437;29;20043;-63
2023/01/18 03:51:24;;;;;;;5.35;3.70;;;2.30;99.90;;;;;;5089482;29;20039;-64
2023/01/18 03:54:27;;;;;;;7.55;4.35;;;2.40;99.90;;;;;;5114374;28;20113;-64
2023/01/18 03:57:20;;;;;;;6.68;4.35;;;2.40;99.90;;;;;;5091493;29;20027;-64
2023/01/18 03:59:56;;;;;;;8.30;4.68;;;2.50;99.90;;;;;;5083278;29;20051;-64
2023/01/18 04:02:27;;;;;;;7.38;4.68;;;2.40;99.90;;;;;;5096989;28;20039;-62
2023/01/18 04:05:02;;;;;;;8.80;5.72;;;2.40;99.90;;;;;;5075483;28;20085;-64
2023/01/18 04:07:36;;;;;;;9.00;4.97;;;2.50;99.90;;;;;;5099396;29;20031;-64
2023/01/18 04:10:08;;;;;;;8.95;5.93;;;2.50;99.90;;;;;;5088176;29;20043;-64
2023/01/18 04:12:39;;;;;;;9.43;5.55;;;2.40;99.90;;;;;;5105892;28;20036;-64
2023/01/18 04:15:11;;;;;;;16.23;6.68;;;2.40;99.90;;;;;;5089270;29;20034;-65
2023/01/18 04:17:42;;;;;;;10.35;5.18;;;2.40;99.90;;;;;;5073265;29;20051;-64
2023/01/18 04:20:14;;;;;;;7.53;4.88;;;2.40;99.90;;;;;;5084438;29;20040;-64
2023/01/18 04:22:51;;;;;;;9.30;4.75;;;2.40;99.90;;;;;;5089232;29;20054;-65
2023/01/18 04:25:22;;;;;;;10.63;6.65;;;2.40;99.90;;;;;;5091672;29;20367;-63
2023/01/18 04:27:57;;;;;;;8.20;5.35;;;2.30;99.90;;;;;;5085389;29;20051;-64
2023/01/18 04:30:28;;;;;;;10.30;5.57;;;2.40;99.90;;;;;;5103753;28;20035;-64
2023/01/18 04:32:59;;;;;;;8.80;4.82;;;2.50;99.90;;;;;;5093917;29;20044;-64
2023/01/18 04:35:35;;;;;;;9.13;5.32;;;2.60;99.90;;;;;;5112435;28;20035;-65
2023/01/18 04:38:06;;;;;;;10.68;5.68;;;2.60;99.90;;;;;;5084688;29;20035;-65
2023/01/18 04:40:40;;;;;;;10.95;6.13;;;2.70;99.90;;;;;;5106393;28;20047;-64
2023/01/18 04:43:11;;;;;;;8.98;5.80;;;2.70;99.90;;;;;;5120959;28;20024;-64
2023/01/18 04:45:54;;;;;;;7.90;4.90;;;2.70;99.90;;;;;;5105397;29;20039;-64
2023/01/18 04:48:28;;;;;;;7.45;5.15;;;2.60;99.90;;;;;;5089043;29;20044;-65
2023/01/18 04:51:02;;;;;;;10.80;5.15;;;2.60;99.90;;;;;;5109087;29;20035;-65
2023/01/18 04:53:34;;;;;;;9.13;5.65;;;2.60;99.90;;;;;;5095731;29;20030;-66
2023/01/18 04:56:08;;;;;;;5.82;3.97;;;2.60;99.90;;;;;;5106886;28;20042;-65
2023/01/18 04:58:39;;;;;;;8.40;5.07;;;2.50;99.90;;;;;;5088477;29;20036;-65
2023/01/18 05:01:12;;;;;;;9.18;5.47;;;2.60;99.90;;;;;;5089433;28;20055;-64
2023/01/18 05:03:47;;;;;;;10.65;6.43;;;2.70;99.90;;;;;;5116380;28;20036;-63
2023/01/18 05:06:21;;;;;;;9.75;5.43;;;2.70;99.90;;;;;;5110494;28;20057;-65
2023/01/18 05:08:52;;;;;;;8.75;5.25;;;2.60;99.90;;;;;;5090460;29;20031;-64
2023/01/18 05:11:23;;;;;;;9.48;5.75;;;2.50;99.90;;;;;;5104514;28;20035;-61
2023/01/18 05:13:58;;;;;;;12.18;6.30;;;2.40;99.90;;;;;;5119893;28;20051;-64
2023/01/18 05:16:32;;;;;;;7.30;4.70;;;2.50;99.90;;;;;;5096079;29;20043;-64
2023/01/18 05:19:05;;;;;;;7.60;5.03;;;2.50;99.90;;;;;;5099782;29;20044;-66
2023/01/18 05:21:37;;;;;;;10.55;6.35;;;2.70;99.90;;;;;;5106981;28;20053;-63
2023/01/18 05:24:11;;;;;;;12.10;7.22;;;2.80;99.90;;;;;;5109109;28;20035;-64
2023/01/18 05:26:44;;;;;;;17.73;8.18;;;2.90;99.90;;;;;;5095485;29;20046;-63
2023/01/18 05:29:16;;;;;;;15.85;8.75;;;3.00;99.90;;;;;;5110378;29;20552;-64
2023/01/18 05:31:51;;;;;;;14.70;7.93;;;2.90;99.90;;;;;;5095041;29;20043;-64
2023/01/18 05:34:26;;;;;;;18.10;7.65;;;2.90;99.90;;;;;;5087525;29;20519;-64
2023/01/18 05:36:58;;;;;;;15.50;8.32;;;2.90;99.90;;;;;;5081091;29;20054;-66
2023/01/18 05:39:32;;;;;;;13.15;8.30;;;2.90;99.90;;;;;;5139897;28;20050;-66
2023/01/18 05:42:04;;;;;;;11.95;7.60;;;2.80;99.90;;;;;;5119888;29;20054;-63
2023/01/18 05:44:38;;;;;;;14.68;7.60;;;3.00;99.90;;;;;;5127339;28;20049;-63
2023/01/18 05:47:12;;;;;;;13.25;7.00;;;3.00;99.90;;;;;;5090053;29;20063;-65
2023/01/18 05:49:51;;;;;;;10.50;7.20;;;3.00;99.90;;;;;;5103897;29;20310;-64
2023/01/18 05:52:24;;;;;;;17.58;8.75;;;3.00;99.90;;;;;;5093706;29;20036;-65
2023/01/18 05:55:04;;;;;;;15.10;7.60;;;3.00;99.90;;;;;;5108653;29;20042;-64
2023/01/18 05:57:35;;;;;;;14.93;7.97;;;3.00;99.90;;;;;;5093010;29;20039;-65
2023/01/18 06:00:08;;;;;;;15.30;9.52;;;3.00;99.90;;;;;;5077532;29;20046;-62
2023/01/18 06:02:41;;;;;;;18.67;9.23;;;3.00;99.90;;;;;;5108241;28;20046;-64
2023/01/18 06:05:16;;;;;;;17.27;9.10;;;2.90;99.90;;;;;;5093908;28;20046;-63
2023/01/18 06:07:51;;;;;;;13.82;8.43;;;2.80;99.90;;;;;;5096417;28;20035;-65
2023/01/18 06:10:22;;;;;;;;;;;2.80;99.90;;;;;;5070699;29;20035;-65
2023/01/18 06:12:53;;;;;;;14.40;7.72;;;2.80;99.90;;;;;;5124122;28;19994;-65
2023/01/18 06:15:24;;;;;;;13.05;7.40;;;2.80;99.90;;;;;;5100955;29;20050;-65
2023/01/18 06:17:58;;;;;;;13.93;8.05;;;2.80;99.90;;;;;;5088413;29;20031;-64
2023/01/18 06:20:29;;;;;;;16.23;8.50;;;2.80;99.90;;;;;;5093002;29;20044;-64
2023/01/18 06:23:02;;;;;;;17.48;9.35;;;2.80;99.90;;;;;;5106551;29;20031;-64
2023/01/18 06:25:33;;;;;;;15.48;9.13;;;2.80;99.90;;;;;;5076674;29;20035;-62
2023/01/18 06:28:09;;;;;;;17.75;9.93;;;2.70;99.90;;;;;;5074427;29;20031;-64
2023/01/18 06:30:42;;;;;;;15.30;8.00;;;2.70;99.90;;;;;;5123070;28;20043;-64
2023/01/18 06:33:15;;;;;;;14.45;9.10;;;2.70;99.90;;;;;;5106825;29;20035;-65
2023/01/18 06:35:46;;;;;;;19.55;9.40;;;2.70;99.90;;;;;;5115855;28;20032;-64
2023/01/18 06:38:20;;;;;;;20.45;10.43;;;2.70;99.90;;;;;;5085617;29;20046;-63
2023/01/18 06:40:54;;;;;;;18.98;10.57;;;2.60;99.90;;;;;;5090397;29;20031;-65
2023/01/18 06:43:25;;;;;;;;;;;2.60;99.90;;;;;;5090865;29;20040;-64
2023/01/18 06:45:59;;;;;;;18.20;9.93;;;2.50;99.90;;;;;;5107171;29;19916;-66
2023/01/18 06:48:33;;;;;;;20.42;9.82;;;2.40;99.90;;;;;;5070060;29;20039;-64
2023/01/18 06:51:04;;;;;;;21.90;10.63;;;2.30;99.90;;;;;;5091260;29;20043;-63
2023/01/18 06:53:37;;;;;;;15.75;7.93;;;2.20;99.90;;;;;;5090874;29;20047;-64
2023/01/18 06:56:10;;;;;;;18.50;10.68;;;2.20;99.90;;;;;;5073236;29;20039;-62
2023/01/18 06:58:41;;;;;;;18.77;10.87;;;2.10;99.90;;;;;;5105621;28;20125;-63
2023/01/18 07:01:15;;;;;;;20.15;10.70;;;2.10;99.90;;;;;;5121537;28;20047;-64
2023/01/18 07:03:47;;;;;;;23.05;10.90;;;2.20;99.90;;;;;;5105945;29;20031;-66
2023/01/18 07:06:20;;;;;;;24.55;10.50;;;2.20;99.90;;;;;;5098362;28;20053;-65
2023/01/18 07:08:51;;;;;;;17.42;10.30;;;2.20;99.90;;;;;;5109088;28;20041;-64
2023/01/18 07:11:23;;;;;;;22.23;10.15;;;2.20;99.90;;;;;;5102833;29;20038;-64
2023/01/18 07:13:56;;;;;;;18.20;10.18;;;2.30;99.90;;;;;;5107096;28;20320;-62
2023/01/18 07:16:31;;;;;;;17.27;9.95;;;2.30;99.90;;;;;;5106488;29;20031;-64
2023/01/18 07:19:03;;;;;;;19.52;10.07;;;2.30;99.90;;;;;;5089538;29;20159;-65
2023/01/18 07:21:41;;;;;;;19.98;9.48;;;2.40;99.90;;;;;;5073648;29;20050;-63
2023/01/18 07:24:13;;;;;;;18.70;9.20;;;2.40;99.90;;;;;;5090333;29;20027;-64
2023/01/18 07:26:44;;;;;;;17.27;8.73;;;2.40;99.90;;;;;;5094566;29;20335;-64
2023/01/18 07:29:18;;;;;;;16.48;8.68;;;2.20;99.90;;;;;;5080319;29;20038;-64
2023/01/18 07:31:49;;;;;;;17.40;8.40;;;2.20;99.90;;;;;;5123057;28;20039;-64
2023/01/18 07:34:23;;;;;;;21.63;9.88;;;2.10;99.90;;;;;;5091317;29;20054;-64
2023/01/18 07:36:54;;;;;;;16.65;8.85;;;2.10;99.90;;;;;;5118321;28;20047;-63
2023/01/18 07:39:25;;;;;;;17.25;8.65;;;2.20;99.90;;;;;;5061933;29;20036;-66
2023/01/18 07:41:57;;;;;;;17.05;9.23;;;2.30;99.90;;;;;;5063505;29;20055;-65
2023/01/18 07:44:30;;;;;;;15.82;8.70;;;2.40;99.90;;;;;;5090295;29;20035;-64
2023/01/18 07:47:01;;;;;;;20.73;9.47;;;2.40;99.90;;;;;;5104341;29;20034;-63
2023/01/18 07:49:35;;;;;;;19.02;9.75;;;2.50;99.90;;;;;;5098771;28;20809;-66
2023/01/18 07:52:08;;;;;;;20.38;9.85;;;2.60;99.90;;;;;;5072365;29;20038;-65
2023/01/18 07:54:41;;;;;;;19.35;10.40;;;2.60;99.90;;;;;;5090013;29;20046;-64
2023/01/18 07:57:12;;;;;;;19.23;10.48;;;2.60;99.90;;;;;;5082720;29;20035;-64
2023/01/18 07:59:46;;;;;;;23.73;11.13;;;2.70;99.90;;;;;;5089398;29;20032;-65
2023/01/18 08:02:20;;;;;;;25.27;10.77;;;2.70;99.90;;;;;;5088963;29;20035;-64
2023/01/18 08:04:52;;;;;;;19.10;10.15;;;2.70;99.90;;;;;;5100942;28;20050;-64
2023/01/18 08:07:23;;;;;;;17.13;9.27;;;2.80;99.90;;;;;;5109163;28;20050;-65
2023/01/18 08:09:54;;;;;;;22.33;11.13;;;3.00;99.90;;;;;;5093625;29;20028;-63
2023/01/18 08:12:26;;;;;;;23.65;10.07;;;3.00;99.90;;;;;;5097359;29;20047;-64
2023/01/18 08:14:57;;;;;;;20.60;10.63;;;3.00;99.90;;;;;;5088145;29;20039;-65
2023/01/18 08:17:33;;;;;;;19.05;11.13;;;3.10;99.90;;;;;;5070072;29;20069;-65
2023/01/18 08:20:08;;;;;;;16.65;9.25;;;3.20;99.90;;;;;;5088479;29;20036;-63
2023/01/18 08:22:39;;;;;;;14.20;8.43;;;3.30;99.90;;;;;;5104611;29;20419;-64
2023/01/18 08:25:13;;;;;;;16.63;8.55;;;3.50;99.90;;;;;;5087336;29;20414;-66
2023/01/18 08:27:44;;;;;;;18.20;9.15;;;3.50;99.90;;;;;;5066082;29;20046;-65
2023/01/18 08:30:16;;;;;;;13.68;7.22;;;3.70;99.90;;;;;;5088899;29;20027;-65
2023/01/18 08:32:47;;;;;;;12.18;7.75;;;3.80;99.90;;;;;;5087617;29;20045;-66
2023/01/18 08:35:21;;;;;;;10.30;6.35;;;4.00;99.90;;;;;;5087261;29;20058;-65
2023/01/18 08:37:53;;;;;;;8.48;5.60;;;4.10;99.90;;;;;;5095544;29;20036;-64
2023/01/18 08:40:25;;;;;;;7.38;5.25;;;4.20;99.90;;;;;;5089211;29;20046;-65
2023/01/18 08:42:58;;;;;;;6.82;3.92;;;4.30;99.90;;;;;;5110965;28;20396;-64
2023/01/18 08:45:33;;;;;;;5.38;3.75;;;4.40;99.90;;;;;;5103600;29;20323;-65
2023/01/18 08:48:08;;;;;;;11.23;5.70;;;4.50;99.90;;;;;;5123810;28;20060;-64
2023/01/18 08:50:39;;;;;;;;;;;4.60;99.90;;;;;;5086133;29;20053;-64
2023/01/18 08:53:10;;;;;;;8.48;3.05;;;4.80;99.90;;;;;;5088498;29;20202;-63
2023/01/18 08:55:44;;;;;;;9.50;5.32;;;5.00;99.90;;;;;;5087127;29;20046;-63
2023/01/18 08:58:15;;;;;;;5.25;2.72;;;5.20;99.90;;;;;;5085870;29;20042;-64
2023/01/18 09:00:49;;;;;;;2.80;2.28;;;5.20;99.90;;;;;;5094954;28;20040;-65
2023/01/18 09:03:21;;;;;;;3.40;2.83;;;5.30;99.90;;;;;;5100474;28;20044;-63
2023/01/18 09:05:55;;;;;;;3.97;3.28;;;5.40;99.90;;;;;;5106653;28;20246;-65
2023/01/18 09:08:27;;;;;;;5.43;2.67;;;5.60;99.90;;;;;;5090467;28;20035;-63
2023/01/18 09:11:09;;;;;;;3.13;2.08;;;5.80;99.90;;;;;;5118257;28;20051;-63
2023/01/18 09:13:40;;;;;;;2.50;2.30;;;6.00;99.90;;;;;;5110157;29;20037;-64
2023/01/18 09:16:15;;;;;;;2.13;1.70;;;6.30;99.90;;;;;;5103645;29;20027;-64
2023/01/18 09:18:49;;;;;;;5.35;3.03;;;6.60;99.90;;;;;;5088356;29;20032;-65
2023/01/18 09:21:23;;;;;;;16.05;6.82;;;6.80;99.90;;;;;;5089327;29;20048;-66
2023/01/18 09:23:58;;;;;;;3.72;2.72;;;7.10;99.90;;;;;;5091798;29;20028;-65
2023/01/18 09:26:29;;;;;;;2.15;1.90;;;7.20;99.90;;;;;;5127338;28;20039;-64
2023/01/18 09:29:00;;;;;;;5.18;2.53;;;7.30;99.90;;;;;;5107056;29;20042;-65
2023/01/18 09:31:32;;;;;;;8.80;4.20;;;7.20;99.90;;;;;;5099851;29;20024;-65
2023/01/18 09:34:03;;;;;;;7.18;3.35;;;7.20;99.90;;;;;;5121278;28;20447;-65
2023/01/18 09:36:36;;;;;;;2.33;2.10;;;7.30;99.90;;;;;;5085735;29;20027;-64
2023/01/18 09:39:08;;;;;;;1.88;1.73;;;7.30;99.90;;;;;;5089717;29;20042;-63
2023/01/18 09:41:48;;;;;;;2.45;1.70;;;7.30;99.90;;;;;;5091124;29;20050;-64
2023/01/18 09:44:25;;;;;;;7.72;3.80;;;7.20;99.90;;;;;;5086214;29;20070;-64
2023/01/18 09:47:04;;;;;;;1.73;1.30;;;7.40;99.90;;;;;;5091049;29;20031;-64
2023/01/18 09:49:55;;;;;;;3.80;2.28;;;7.70;99.90;;;;;;5120578;28;20041;-65
2023/01/18 09:52:50;;;;;;;4.25;3.47;;;8.00;99.90;;;;;;5105528;28;20028;-64
2023/01/18 09:55:26;;;;;;;1.80;1.50;;;8.00;99.90;;;;;;5064774;29;20051;-63
2023/01/18 09:58:14;;;;;;;2.20;2.00;;;8.00;99.90;;;;;;5085366;29;20071;-65
2023/01/18 10:00:50;;;;;;;2.08;1.40;;;8.00;99.90;;;;;;5087107;29;20039;-66
2023/01/18 10:03:40;;;;;;;3.08;1.25;;;8.00;99.90;;;;;;5089777;29;20121;-65
2023/01/18 10:06:30;;;;;;;3.63;1.50;;;8.00;99.90;;;;;;5074257;29;20271;-65
2023/01/18 10:09:10;;;;;;;2.95;1.40;;;8.00;99.90;;;;;;5089107;29;20039;-66
2023/01/18 10:11:55;;;;;;;1.10;1.00;;;7.80;99.90;;;;;;5088173;29;20236;-64
2023/01/18 10:14:43;;;;;;;2.80;1.20;;;7.60;99.90;;;;;;5092228;29;20031;-66
2023/01/18 10:17:19;;;;;;;1.83;1.50;;;7.70;99.90;;;;;;5093328;29;20551;-68
2023/01/18 10:19:53;;;;;;;3.15;1.55;;;7.50;99.90;;;;;;5092037;29;20027;-63
2023/01/18 10:22:31;;;;;;;3.13;2.03;;;7.70;99.90;;;;;;5092355;29;20047;-66
2023/01/18 10:25:21;;;;;;;5.65;4.35;;;7.80;99.90;;;;;;5088907;29;20291;-65
2023/01/18 10:28:07;;;;;;;5.70;4.25;;;7.70;99.90;;;;;;5094049;29;20038;-66
2023/01/18 10:31:03;;;;;;;5.93;3.92;;;7.70;99.90;;;;;;5093121;29;20042;-64
2023/01/18 10:33:39;;;;;;;6.25;3.63;;;7.70;99.90;;;;;;5089433;29;20331;-65
2023/01/18 10:36:21;;;;;;;5.65;4.15;;;7.90;99.90;;;;;;5127019;28;20031;-65
2023/01/18 10:38:55;;;;;;;7.40;4.45;;;8.00;99.90;;;;;;5119938;28;20047;-64
2023/01/18 10:41:33;;;;;;;4.93;3.97;;;8.10;99.90;;;;;;5098596;29;20035;-65
2023/01/18 10:44:04;;;;;;;6.10;4.80;;;7.90;99.90;;;;;;5105783;29;20039;-65
2023/01/18 10:46:35;;;;;;;7.43;4.10;;;7.70;99.90;;;;;;5092401;28;20221;-64
2023/01/18 10:49:09;;;;;;;9.23;4.47;;;7.50;99.90;;;;;;5071085;29;20028;-65
2023/01/18 10:51:40;;;;;;;7.13;4.88;;;7.30;99.90;;;;;;5090355;29;20232;-62
2023/01/18 10:54:32;;;;;;;8.30;4.97;;;7.40;99.90;;;;;;5088181;29;20040;-65
2023/01/18 10:57:04;;;;;;;7.18;4.55;;;7.30;99.90;;;;;;5106242;29;20092;-68
2023/01/18 10:59:38;;;;;;;7.85;4.60;;;7.40;99.90;;;;;;5110518;29;20033;-65
2023/01/18 11:02:24;;;;;;;5.47;3.75;;;7.30;99.90;;;;;;5130835;28;20048;-65
2023/01/18 11:05:17;;;;;;;2.35;1.85;;;7.40;99.90;;;;;;5096256;28;20057;-65
2023/01/18 11:08:32;;;;;;;3.90;2.78;;;7.20;99.90;;;;;;5108659;28;20031;-66
2023/01/18 11:11:17;;;;;;;3.08;2.03;;;7.30;99.90;;;;;;5092100;29;20023;-68
2023/01/18 11:13:58;;;;;;;7.63;1.35;;;7.20;99.90;;;;;;5114032;28;20048;-66
2023/01/18 11:16:29;;;;;;;0.85;0.85;;;7.20;99.90;;;;;;5092360;29;20027;-66
2023/01/18 11:19:16;;;;;;;0.40;0.40;;;7.30;99.90;;;;;;5123162;28;20024;-63
2023/01/18 11:21:51;;;;;;;0.90;0.90;;;7.40;99.90;;;;;;5092331;29;20050;-64
2023/01/18 11:24:30;;;;;;;0.63;0.63;;;7.50;99.90;;;;;;5082104;29;20019;-65
2023/01/18 11:27:22;;;;;;;0.63;0.63;;;7.70;99.90;;;;;;5098854;29;20023;-64
2023/01/18 11:29:56;;;;;;;0.57;0.57;;;8.00;99.90;;;;;;5121123;28;20253;-65
2023/01/18 11:32:29;;;;;;;0.68;0.68;;;8.30;99.90;;;;;;5092140;29;20020;-64
2023/01/18 11:35:06;;;;;;;0.82;0.82;;;8.20;99.90;;;;;;5096043;28;20050;-65
2023/01/18 11:37:42;;;;;;;1.38;1.27;;;8.00;99.90;;;;;;5114328;28;20055;-65
2023/01/18 11:40:25;;;;;;;0.60;0.60;;;7.90;99.90;;;;;;5091598;29;20020;-62
2023/01/18 11:43:10;;;;;;;0.73;0.73;;;7.70;99.90;;;;;;5089621;29;20036;-66
2023/01/18 11:45:49;;;;;;;;;;;8.80;99.90;;;;;;5101447;29;20043;-63
2023/01/18 11:48:50;;;;;;;0.98;0.98;;;9.90;99.90;;;;;;5105859;29;19907;-66
2023/01/18 11:51:33;;;;;;;0.80;0.80;;;10.30;99.90;;;;;;5089869;29;20048;-64
2023/01/18 11:54:05;;;;;;;0.75;0.75;;;10.20;99.90;;;;;;5082765;29;20735;-63
2023/01/18 11:56:48;;;;;;;0.50;0.50;;;10.10;99.90;;;;;;5074113;29;20027;-64
2023/01/18 11:59:29;;;;;;;1.77;1.38;;;11.60;99.90;;;;;;5078504;29;20038;-65
2023/01/18 12:02:29;;;;;;;1.75;0.77;;;12.60;99.90;;;;;;5066518;29;20054;-64
2023/01/18 12:05:28;;;;;;;1.00;0.90;;;12.70;99.90;;;;;;5093931;28;20045;-65
2023/01/18 12:08:05;;;;;;;0.85;0.85;;;13.50;99.90;;;;;;5105835;28;20027;-65
2023/01/18 12:11:03;;;;;;;0.80;0.80;;;13.80;99.90;;;;;;5138639;28;20039;-65
2023/01/18 12:13:43;;;;;;;0.95;0.95;;;13.80;99.90;;;;;;5077661;29;20039;-66
2023/01/18 12:16:57;;;;;;;1.23;1.13;;;14.00;99.90;;;;;;5087372;29;20042;-67
2023/01/18 12:19:28;;;;;;;2.78;0.90;;;13.30;99.90;;;;;;5047927;29;20031;-64
2023/01/18 12:22:16;;;;;;;1.58;0.90;;;14.20;99.90;;;;;;5028315;29;20048;-65
2023/01/18 12:25:20;;;;;;;0.80;0.80;;;13.10;99.90;;;;;;5021618;29;20063;-64
2023/01/18 12:28:19;;;;;;;0.68;0.68;;;13.30;99.90;;;;;;5026228;29;20352;-67
2023/01/18 12:31:01;;;;;;;2.92;1.10;;;14.10;99.90;;;;;;5042313;29;20440;-66
2023/01/18 12:33:44;;;;;;;2.05;1.20;;;14.50;99.90;;;;;;5005999;29;20048;-67
2023/01/18 12:36:35;;;;;;;2.28;1.08;;;13.90;99.90;;;;;;5042772;29;20028;-67
2023/01/18 12:39:39;;;;;;;1.30;1.00;;;11.60;99.90;;;;;;5046541;29;20036;-67
2023/01/18 12:42:49;;;;;;;0.43;0.43;;;10.80;99.90;;;;;;5027930;29;20212;-66
2023/01/18 12:45:40;;;;;;;1.88;0.90;;;11.10;99.90;;;;;;5001727;29;20056;-65
2023/01/18 12:48:32;;;;;;;1.52;0.80;;;10.90;99.90;;;;;;5018206;29;20035;-66
2023/01/18 12:51:12;;;;;;;0.70;0.70;;;10.90;99.90;;;;;;5085362;28;20306;-66
2023/01/18 12:53:52;;;;;;;1.05;0.73;;;10.40;99.90;;;;;;5084825;29;20047;-66
2023/01/18 12:56:26;;;;;;;0.82;0.60;;;9.40;99.90;;;;;;5103930;28;20554;-65
2023/01/18 12:59:15;;;;;;;0.60;0.60;;;9.40;99.90;;;;;;5134588;28;20046;-65
2023/01/18 13:02:16;;;;;;;0.85;0.70;;;9.10;99.90;;;;;;5103749;28;20449;-67
2023/01/18 13:05:00;;;;;;;0.85;0.85;;;8.70;99.90;;;;;;5096025;28;20353;-66
2023/01/18 13:07:43;;;;;;;0.45;0.45;;;8.40;99.90;;;;;;5099503;29;20050;-66
2023/01/18 13:10:22;;;;;;;0.63;0.63;;;8.30;99.90;;;;;;5101298;29;20364;-63
2023/01/18 13:12:57;;;;;;;1.20;0.70;;;8.20;99.90;;;;;;5075666;29;20039;-66
2023/01/18 13:16:00;;;;;;;1.50;0.80;;;8.30;99.90;;;;;;5086326;29;20044;-66
2023/01/18 13:19:04;;;;;;;0.95;0.90;;;8.50;99.90;;;;;;5089663;29;20012;-65
2023/01/18 13:21:51;;;;;;;2.38;0.60;;;8.80;99.90;;;;;;5099640;29;20334;-67
2023/01/18 13:24:45;;;;;;;0.50;0.50;;;9.10;99.90;;;;;;5116697;28;20050;-66
2023/01/18 13:27:19;;;;;;;0.82;0.82;;;9.30;99.90;;;;;;5127007;28;20091;-67
2023/01/18 13:29:50;;;;;;;0.70;0.70;;;9.50;99.90;;;;;;5134993;28;20050;-65
2023/01/18 13:32:30;;;;;;;0.85;0.70;;;9.70;99.90;;;;;;5095074;29;20315;-68
2023/01/18 13:35:15;;;;;;;0.80;0.70;;;9.30;99.90;;;;;;5098756;29;20216;-66
2023/01/18 13:37:52;;;;;;;0.68;0.68;;;9.10;99.90;;;;;;5103168;29;20046;-66
2023/01/18 13:40:35;;;;;;;0.80;0.80;;;8.80;99.90;;;;;;5089676;29;20047;-68
2023/01/18 13:43:52;;;;;;;1.20;1.10;;;8.90;99.90;;;;;;5090647;29;20028;-67
2023/01/18 13:46:25;;;;;;;1.35;0.73;;;8.90;99.90;;;;;;5090959;29;20036;-64
2023/01/18 13:48:59;;;;;;;1.08;0.90;;;9.10;99.90;;;;;;5094780;29;20271;-64
2023/01/18 13:51:39;;;;;;;0.85;0.85;;;9.30;99.90;;;;;;5115922;28;20031;-67
2023/01/18 13:54:37;;;;;;;2.10;1.40;;;9.70;99.90;;;;;;5126858;28;20037;-66
2023/01/18 13:57:12;;;;;;;3.58;1.05;;;9.50;99.90;;;;;;5082520;29;20050;-65
2023/01/18 13:59:53;;;;;;;2.33;0.77;;;9.50;99.90;;;;;;5096446;29;20431;-66
2023/01/18 14:02:40;;;;;;;1.00;0.80;;;9.80;99.90;;;;;;5096573;28;20074;-64
2023/01/18 14:05:25;;;;;;;1.25;1.10;;;10.10;99.90;;;;;;5112011;28;20063;-65
2023/01/18 14:07:59;;;;;;;1.00;1.00;;;10.10;99.90;;;;;;5098230;28;20271;-65
2023/01/18 14:10:37;;;;;;;0.95;0.95;;;9.90;99.90;;;;;;5091154;29;20043;-67
2023/01/18 14:13:14;;;;;;;2.42;1.00;;;9.50;99.90;;;;;;5080297;29;20245;-65
2023/01/18 14:15:52;;;;;;;1.10;1.00;;;9.10;99.90;;;;;;5098874;29;20042;-66
2023/01/18 14:18:29;;;;;;;2.90;1.60;;;8.70;99.90;;;;;;5081637;29;20042;-66